Terminal Aerodrome Forecast
Issued by NWS Green Bay, WI

Home | Current Version | Previous Version | Graphics & Text | Print | Product List | Glossary On
Versions: 1 2 3 4 5 6 7 8 9 10 11 12
000
FTUS43 KGRB 191125
TAFGRB
TAF
KGRB 191125Z 1912/2012 26007KT P6SM BKN250
     FM191500 26009G16KT P6SM SCT250
     FM192200 21005KT P6SM SKC=

USA.gov is the U.S. government's official web portal to all federal, state and local government web resources and services.